createdAt,value
2022-09-29T00:08:55.648Z,1.3
2022-09-29T00:28:55.645Z,1.3
2022-09-29T00:49:54.900Z,1.3
2022-09-29T01:08:56.640Z,1.3
2022-09-29T01:48:55.638Z,1.29
2022-09-29T02:09:54.934Z,1.3
2022-09-29T02:28:55.633Z,1.3
2022-09-29T02:49:54.888Z,1.29
2022-09-29T03:08:55.628Z,1.29
2022-09-29T03:28:55.624Z,1.28
2022-09-29T03:48:55.621Z,1.29
2022-09-29T04:08:55.619Z,1.29
2022-09-29T04:28:56.657Z,1.28
2022-09-29T04:48:55.614Z,1.28
2022-09-29T05:28:55.612Z,1.28
2022-09-29T05:48:55.651Z,1.28
2022-09-29T06:08:55.607Z,1.28
2022-09-29T06:28:55.603Z,1.28
2022-09-29T06:48:55.598Z,1.28
2022-09-29T07:09:54.852Z,1.28
2022-09-29T07:28:55.592Z,1.28
2022-09-29T07:48:55.587Z,1.3
2022-09-29T08:08:55.578Z,1.3
2022-09-29T08:28:55.570Z,1.3
2022-09-29T08:48:55.560Z,1.31
2022-09-29T09:08:56.551Z,1.3
2022-09-29T09:28:56.540Z,1.31
2022-09-29T10:48:55.499Z,1.32
2022-09-29T12:48:55.432Z,1.35
2022-09-29T13:08:55.460Z,1.35
2022-09-29T13:49:08.654Z,1.35
2022-09-29T14:08:55.382Z,1.35
2022-09-29T14:28:55.369Z,1.35
2022-09-29T14:48:55.357Z,1.35
2022-09-29T15:08:55.386Z,1.35
2022-09-29T15:29:54.590Z,1.35
2022-09-29T15:48:55.321Z,1.35
2022-09-29T16:08:55.309Z,1.35
2022-09-29T16:28:55.298Z,1.35
2022-09-29T16:48:55.287Z,1.35
2022-09-29T17:08:55.320Z,1.34
2022-09-29T17:29:55.271Z,1.34
2022-09-29T17:49:54.520Z,1.33
2022-09-29T18:09:55.257Z,1.33
2022-09-29T18:28:56.250Z,1.33
2022-09-29T18:49:55.242Z,1.33
2022-09-29T19:09:55.237Z,1.32
2022-09-29T19:29:55.231Z,1.31
2022-09-29T19:49:55.225Z,1.31
2022-09-29T20:09:55.219Z,1.31
2022-09-29T20:29:55.213Z,1.3
2022-09-29T20:49:55.208Z,1.3
2022-09-29T21:09:55.202Z,1.3
2022-09-29T21:29:55.196Z,1.3
2022-09-29T21:49:55.191Z,1.29
2022-09-29T22:08:56.186Z,1.28
2022-09-29T22:29:54.439Z,1.28
2022-09-29T22:49:56.178Z,1.28
2022-09-29T23:09:55.175Z,1.28
2022-09-29T23:29:54.428Z,1.28
2022-09-29T23:49:55.170Z,1.28
